Time;durP1;ratioP1;P1;durP2;ratioP2;P2;SDS_P1;SDS_P2;PMS_P1;PMS_P2;Temp;Humidity;BMP_temperature;BMP_pressure;BME280_temperature;BME280_humidity;BME280_pressure;Samples;Min_cycle;Max_cycle;Signal;HPM_P1;HPM_P2
2021/12/02 04:31:11;;;;;;;2.00;1.90;;;;;;;10.49;54.57;97159.97;8001878;23;20247;-80
2021/12/02 04:34:33;;;;;;;1.70;1.60;;;;;;;10.10;56.10;97156.31;6893953;28;20234;-78
2021/12/02 04:37:54;;;;;;;1.57;1.47;;;;;;;10.44;54.62;97151.78;6919441;28;20236;-78
2021/12/02 04:41:18;;;;;;;2.40;1.50;;;;;;;10.44;54.56;97154.47;6912663;28;20624;-77
2021/12/02 04:44:45;;;;;;;1.53;1.43;;;;;;;10.00;55.79;97161.50;6920869;23;20246;-86
2021/12/02 04:48:09;;;;;;;2.20;2.00;;;;;;;10.30;54.63;97139.72;6935577;28;20195;-84
2021/12/02 04:51:32;;;;;;;3.23;2.93;;;;;;;10.28;55.09;97158.00;6937374;28;20230;-87
2021/12/02 04:54:54;;;;;;;3.83;2.67;;;;;;;10.48;54.07;97121.44;6933343;28;20653;-86
2021/12/02 04:58:16;;;;;;;1.87;1.77;;;;;;;10.48;54.44;97158.34;6910540;28;20196;-86
2021/12/02 05:01:38;;;;;;;1.60;1.50;;;;;;;10.44;54.37;97149.94;6906805;28;20204;-84
2021/12/02 05:05:10;;;;;;;1.50;1.50;;;;;;;10.18;55.12;97131.72;6897784;28;20218;-86
2021/12/02 05:08:32;;;;;;;1.70;1.60;;;;;;;10.51;54.17;97147.88;6906468;28;20313;-85
2021/12/02 05:11:57;;;;;;;1.70;1.60;;;;;;;10.05;55.05;97155.44;6903810;28;20216;-84
2021/12/02 05:15:25;;;;;;;2.73;1.60;;;;;;;10.29;54.79;97130.84;6902608;28;20224;-85
2021/12/02 05:18:47;;;;;;;2.30;2.10;;;;;;;10.19;54.87;97148.66;6902835;28;20205;-85
2021/12/02 05:22:10;;;;;;;2.53;2.17;;;;;;;9.42;56.06;97107.09;6900911;28;20212;-86
2021/12/02 05:30:11;;;;;;;1.73;1.63;;;;;;;9.82;55.63;97148.25;6904559;28;20214;-85
2021/12/02 05:34:11;;;;;;;2.40;1.70;;;;;;;10.25;54.35;97143.16;6910958;28;20354;-86
2021/12/02 05:37:34;;;;;;;1.87;1.77;;;;;;;10.51;54.18;97155.97;6875413;28;20208;-88
2021/12/02 05:40:56;;;;;;;1.50;1.50;;;;;;;10.74;52.84;97133.44;6882019;28;20209;-87
2021/12/02 05:44:18;;;;;;;1.83;1.63;;;;;;;10.67;53.51;97148.94;6901301;28;20244;-85
2021/12/02 05:47:40;;;;;;;1.90;1.80;;;;;;;10.51;54.06;97139.81;6901578;28;20215;-86
2021/12/02 05:51:05;;;;;;;1.90;1.80;;;;;;;10.33;53.47;97101.53;6902795;28;20231;-86
2021/12/02 05:54:28;;;;;;;2.63;1.90;;;;;;;9.81;55.48;97121.56;6901973;28;20219;-87
2021/12/02 06:02:22;;;;;;;3.23;1.70;;;;;;;10.07;54.96;97151.44;6916110;28;20219;-84
2021/12/02 06:05:45;;;;;;;1.80;1.70;;;;;;;10.11;55.03;97141.00;6902388;28;20277;-86
2021/12/02 06:09:11;;;;;;;1.80;1.70;;;;;;;9.74;55.00;97110.94;6899348;28;20200;-88
2021/12/02 06:12:34;;;;;;;1.90;1.80;;;;;;;9.81;55.68;97138.53;6903174;28;20268;-86
2021/12/02 06:15:57;;;;;;;1.97;1.80;;;;;;;10.00;55.62;97147.22;6900713;28;20255;-86
2021/12/02 06:19:31;;;;;;;3.20;1.80;;;;;;;9.23;57.57;97154.03;6901648;28;20211;-85
2021/12/02 06:22:53;;;;;;;2.90;2.60;;;;;;;9.88;56.46;97152.69;6900567;28;20207;-84
2021/12/02 06:26:15;;;;;;;1.90;1.80;;;;;;;9.54;57.08;97142.84;6900107;28;20230;-84
2021/12/02 06:29:38;;;;;;;1.90;1.80;;;;;;;9.58;57.92;97160.13;6893261;28;20237;-86
2021/12/02 06:33:00;;;;;;;1.90;1.80;;;;;;;9.49;57.36;97163.44;6896158;28;20710;-86
2021/12/02 06:36:37;;;;;;;1.70;1.60;;;;;;;9.46;57.99;97161.22;6923807;28;20234;-84
2021/12/02 06:39:59;;;;;;;2.70;1.80;;;;;;;9.70;57.18;97157.41;6927333;28;20303;-86
2021/12/02 06:43:22;;;;;;;1.83;1.73;;;;;;;9.61;56.31;97140.84;6929477;28;20235;-88
2021/12/02 06:46:45;;;;;;;3.20;1.70;;;;;;;9.91;56.36;97156.72;6924682;28;20209;-86
2021/12/02 06:50:13;;;;;;;1.87;1.77;;;;;;;9.67;56.30;97117.53;6901056;28;20666;-87
2021/12/02 06:53:34;;;;;;;2.43;2.00;;;;;;;9.54;56.53;97142.03;6902342;28;20703;-87
2021/12/02 06:56:56;;;;;;;1.87;1.57;;;;;;;9.95;55.40;97150.66;6902972;28;20538;-87
2021/12/02 07:00:22;;;;;;;1.90;1.80;;;;;;;9.41;57.05;97151.19;6904696;28;20205;-86
2021/12/02 07:03:45;;;;;;;1.97;1.87;;;;;;;9.49;56.54;97169.66;6929231;28;20302;-88
2021/12/02 07:07:07;;;;;;;2.50;1.73;;;;;;;9.74;55.49;97161.28;6926320;28;20211;-85
2021/12/02 07:10:58;;;;;;;1.60;1.50;;;;;;;9.71;54.66;97118.69;6905286;28;20201;-84
2021/12/02 07:14:34;;;;;;;2.13;2.00;;;;;;;9.62;55.74;97139.78;6902843;28;20227;-85
2021/12/02 07:18:00;;;;;;;1.30;1.30;;;;;;;9.87;55.39;97163.66;6904237;28;20207;-86
2021/12/02 07:21:27;;;;;;;2.13;1.90;;;;;;;9.50;54.66;97095.16;6903175;28;20211;-84
2021/12/02 07:24:54;;;;;;;1.80;1.70;;;;;;;10.10;53.68;97164.41;6903628;28;20239;-84
2021/12/02 07:28:17;;;;;;;4.50;4.10;;;;;;;9.89;54.84;97172.31;6904811;28;20223;-84
2021/12/02 07:31:43;;;;;;;1.90;1.80;;;;;;;10.36;53.03;97166.50;6928319;28;20317;-86
2021/12/02 07:35:10;;;;;;;1.70;1.60;;;;;;;10.18;53.80;97171.28;6930066;28;20239;-84
2021/12/02 07:38:33;;;;;;;4.57;3.07;;;;;;;10.15;54.48;97161.81;6931271;28;20218;-84
2021/12/02 07:42:02;;;;;;;5.27;3.90;;;;;;;10.31;53.86;97177.19;6905911;28;20199;-84
2021/12/02 07:45:39;;;;;;;1.97;1.87;;;;;;;10.09;54.78;97168.16;6903638;28;20248;-83
2021/12/02 07:49:00;;;;;;;1.90;1.80;;;;;;;10.49;54.04;97168.03;6899834;28;20218;-85
2021/12/02 07:52:26;;;;;;;1.80;1.70;;;;;;;10.31;53.43;97122.47;6904560;28;20232;-84
2021/12/02 07:55:52;;;;;;;1.80;1.67;;;;;;;10.33;54.10;97174.25;6899301;28;20588;-85
2021/12/02 07:59:17;;;;;;;3.53;2.60;;;;;;;10.52;53.36;97172.97;6899866;28;20319;-83
2021/12/02 08:02:40;;;;;;;3.60;1.60;;;;;;;10.88;53.06;97173.28;6893452;28;20212;-82
2021/12/02 08:06:02;;;;;;;1.43;1.43;;;;;;;10.90;52.56;97146.91;6896063;28;20238;-82
2021/12/02 08:09:23;;;;;;;2.00;1.90;;;;;;;11.07;52.34;97166.56;6901284;28;20204;-83
2021/12/02 08:12:50;;;;;;;1.70;1.60;;;;;;;11.18;52.42;97168.34;6896226;28;20250;-80
2021/12/02 08:16:12;;;;;;;1.70;1.60;;;;;;;10.95;52.81;97170.41;6898275;28;20228;-82
2021/12/02 08:19:34;;;;;;;1.67;1.60;;;;;;;11.08;51.41;97170.88;6899465;28;20235;-85
2021/12/02 08:22:56;;;;;;;1.90;1.80;;;;;;;10.50;53.64;97178.59;6896386;28;20207;-86
2021/12/02 08:26:17;;;;;;;2.83;1.80;;;;;;;10.05;53.57;97169.69;6896772;28;20219;-83
2021/12/02 08:29:42;;;;;;;1.70;1.60;;;;;;;12.15;49.47;97174.72;6899324;28;20341;-82
2021/12/02 08:33:03;;;;;;;2.27;1.70;;;;;;;14.22;45.16;97173.97;6892556;28;20233;-81
2021/12/02 08:36:28;;;;;;;1.70;1.60;;;;;;;15.32;41.21;97173.97;6890475;28;20232;-80
2021/12/02 08:39:50;;;;;;;1.57;1.47;;;;;;;13.91;43.50;97181.16;6889368;28;20219;-78
2021/12/02 08:43:14;;;;;;;1.80;1.70;;;;;;;11.94;47.85;97191.75;6888787;28;20640;-78
2021/12/02 08:46:40;;;;;;;2.00;1.60;;;;;;;11.27;50.29;97193.00;6891023;28;20288;-81
2021/12/02 08:50:03;;;;;;;4.37;1.70;;;;;;;10.93;51.33;97194.13;6890642;28;20207;-84
2021/12/02 08:53:26;;;;;;;1.93;1.60;;;;;;;10.59;52.80;97196.00;6896611;28;20235;-84
2021/12/02 08:56:49;;;;;;;1.87;1.60;;;;;;;10.74;51.46;97130.75;6898678;28;20214;-82
2021/12/02 09:00:23;;;;;;;1.63;1.53;;;;;;;10.39;53.62;97181.38;6902422;28;20691;-83
2021/12/02 09:03:53;;;;;;;1.37;1.37;;;;;;;10.46;53.12;97182.03;6903535;28;20223;-84
2021/12/02 09:07:15;;;;;;;1.90;1.80;;;;;;;10.18;54.27;97187.44;6896671;28;20297;-86
2021/12/02 09:10:38;;;;;;;1.90;1.80;;;;;;;10.49;53.90;97185.03;6902520;28;20216;-86
2021/12/02 09:14:05;;;;;;;2.20;1.60;;;;;;;10.20;54.38;97175.38;6898640;28;20225;-85
2021/12/02 09:17:27;;;;;;;2.00;1.80;;;;;;;10.43;52.81;97161.78;6903748;28;20208;-85
2021/12/02 09:20:53;;;;;;;1.97;1.87;;;;;;;10.47;53.84;97145.94;6898997;28;20207;-87
2021/12/02 09:24:18;;;;;;;1.90;1.80;;;;;;;11.00;54.17;97197.47;6897548;28;20734;-84
2021/12/02 09:27:40;;;;;;;1.80;1.70;;;;;;;10.68;53.93;97182.94;6898182;28;20210;-87
2021/12/02 09:31:02;;;;;;;2.17;1.90;;;;;;;11.00;53.73;97190.19;6903101;28;20232;-87
2021/12/02 09:34:27;;;;;;;1.73;1.63;;;;;;;10.80;53.41;97189.06;6897749;28;20246;-87
2021/12/02 09:41:30;;;;;;;1.90;1.80;;;;;;;10.93;52.92;97186.03;6894728;28;20738;-87
2021/12/02 09:49:30;;;;;;;2.00;1.83;;;;;;;11.27;52.17;97176.84;6888444;28;20200;-89
2021/12/02 09:52:56;;;;;;;2.50;2.10;;;;;;;11.17;51.45;97104.66;6894100;28;20222;-88
2021/12/02 09:56:22;;;;;;;3.67;2.10;;;;;;;11.44;51.67;97182.97;6895149;28;20254;-87
2021/12/02 09:59:52;;;;;;;3.03;2.20;;;;;;;11.22;51.75;97184.84;6899009;28;20226;-88
2021/12/02 10:03:21;;;;;;;3.27;2.10;;;;;;;10.91;53.23;97188.13;6898479;28;20201;-87
2021/12/02 10:06:45;;;;;;;2.17;1.90;;;;;;;10.53;52.81;97126.91;6895132;28;20230;-88
2021/12/02 10:10:13;;;;;;;2.40;2.20;;;;;;;10.68;53.53;97166.78;6905004;28;20204;-88
2021/12/02 10:13:44;;;;;;;2.13;1.93;;;;;;;11.02;54.15;97200.72;6901576;28;20230;-87
2021/12/02 10:17:09;;;;;;;2.20;2.00;;;;;;;10.64;54.85;97209.53;6897721;28;20223;-87
2021/12/02 10:20:34;;;;;;;2.60;2.40;;;;;;;9.37;58.67;97225.34;6906060;28;20667;-86
2021/12/02 10:24:03;;;;;;;2.80;2.50;;;;;;;9.15;59.13;97248.47;6910356;28;20218;-88
2021/12/02 10:27:29;;;;;;;2.77;2.57;;;;;;;8.32;60.33;97170.13;6911816;28;20670;-86
2021/12/02 10:30:55;;;;;;;2.90;2.70;;;;;;;8.55;60.34;97167.50;6894828;28;20204;-88
2021/12/02 10:34:18;;;;;;;3.30;2.90;;;;;;;9.17;59.83;97227.53;6903282;28;20245;-86
2021/12/02 10:37:53;;;;;;;2.23;2.10;;;;;;;9.44;60.09;97228.72;6905172;28;20203;-85
2021/12/02 10:41:24;;;;;;;2.00;1.90;;;;;;;9.21;60.02;97227.91;6906196;28;20207;-86
2021/12/02 10:44:47;;;;;;;2.70;2.50;;;;;;;9.39;60.54;97233.16;6917538;23;20242;-81
2021/12/02 10:48:09;;;;;;;2.43;2.23;;;;;;;9.59;60.00;97214.75;6902950;28;20212;-79
2021/12/02 10:51:38;;;;;;;2.30;2.10;;;;;;;9.63;60.42;97230.19;6902779;28;20199;-80
2021/12/02 10:55:03;;;;;;;2.30;2.10;;;;;;;9.70;59.33;97219.31;6904431;28;20294;-80
2021/12/02 10:58:31;;;;;;;2.17;2.00;;;;;;;9.63;58.93;97229.38;6892938;28;20198;-81
2021/12/02 11:02:00;;;;;;;2.30;2.20;;;;;;;9.55;58.76;97227.88;6898627;28;20209;-82
2021/12/02 11:05:24;;;;;;;2.33;2.20;;;;;;;9.86;58.07;97229.34;6904424;28;20315;-81
2021/12/02 11:08:45;;;;;;;2.63;2.30;;;;;;;9.97;58.54;97226.59;6875753;28;20209;-80
2021/12/02 11:12:10;;;;;;;2.67;2.20;;;;;;;10.31;57.42;97230.22;6890122;28;20572;-84
2021/12/02 11:15:33;;;;;;;3.40;2.57;;;;;;;10.24;58.02;97232.25;6888692;28;20218;-81
2021/12/02 11:19:19;;;;;;;4.73;3.07;;;;;;;9.97;59.59;97237.34;6890406;28;20204;-82
2021/12/02 11:22:41;;;;;;;5.80;2.90;;;;;;;10.11;58.42;97219.09;6885736;28;20203;-80
2021/12/02 11:26:05;;;;;;;2.87;2.60;;;;;;;10.03;58.38;97239.13;6892848;28;20569;-82
2021/12/02 11:29:52;;;;;;;3.07;2.77;;;;;;;9.69;60.13;97231.13;6890928;28;20206;-80
2021/12/02 11:33:18;;;;;;;3.00;2.70;;;;;;;9.37;59.25;97236.09;6881801;28;20234;-80
2021/12/02 11:36:41;;;;;;;2.60;2.40;;;;;;;9.69;60.21;97231.94;6897437;28;20688;-80
2021/12/02 11:40:07;;;;;;;2.30;2.20;;;;;;;9.97;58.24;97225.75;6894983;28;20212;-81
2021/12/02 11:43:31;;;;;;;3.57;2.70;;;;;;;9.53;59.94;97248.00;6876945;28;20221;-81
2021/12/02 11:46:52;;;;;;;3.23;2.93;;;;;;;9.22;59.14;97235.72;6895529;28;20210;-80
2021/12/02 11:50:16;;;;;;;2.43;2.33;;;;;;;9.63;59.23;97240.16;6898747;28;20207;-81
2021/12/02 11:53:39;;;;;;;2.33;2.13;;;;;;;9.69;57.78;97250.75;6899759;28;20227;-84
2021/12/02 11:57:01;;;;;;;2.47;2.37;;;;;;;9.54;58.10;97233.47;6892572;28;20207;-81
2021/12/02 12:00:25;;;;;;;2.40;2.30;;;;;;;9.51;58.12;97242.03;6898864;28;20207;-80
2021/12/02 12:03:49;;;;;;;2.57;2.37;;;;;;;9.47;58.46;97247.06;6886955;28;20250;-84
2021/12/02 12:07:13;;;;;;;2.90;2.70;;;;;;;9.49;59.41;97246.81;6874026;28;20565;-84
2021/12/02 12:10:38;;;;;;;2.53;2.30;;;;;;;10.30;58.20;97244.75;6879690;28;20198;-83
2021/12/02 12:14:03;;;;;;;2.90;2.70;;;;;;;9.89;57.42;97242.28;6899668;28;20268;-80
2021/12/02 12:17:39;;;;;;;4.57;3.30;;;;;;;10.15;57.72;97226.44;6889182;28;20671;-85
2021/12/02 12:21:02;;;;;;;4.40;4.10;;;;;;;10.04;58.31;97223.81;6873486;28;20202;-81
2021/12/02 12:24:40;;;;;;;2.50;2.30;;;;;;;10.38;57.34;97228.19;6872787;28;20227;-80
2021/12/02 12:28:03;;;;;;;2.93;2.73;;;;;;;10.43;56.69;97230.97;6873708;28;20216;-81
2021/12/02 12:31:25;;;;;;;3.83;3.00;;;;;;;10.57;56.54;97235.03;6886869;28;20713;-81
2021/12/02 12:34:56;;;;;;;3.07;2.57;;;;;;;10.76;56.59;97241.81;6897459;28;20262;-80
2021/12/02 12:38:21;;;;;;;2.87;2.57;;;;;;;10.82;56.43;97246.22;6883227;28;20290;-81
2021/12/02 12:41:43;;;;;;;2.50;2.30;;;;;;;10.67;56.02;97252.19;6874502;28;20203;-80
2021/12/02 12:45:07;;;;;;;3.20;2.90;;;;;;;10.02;56.65;97252.78;6877627;28;20255;-81
2021/12/02 12:48:31;;;;;;;3.20;2.87;;;;;;;10.58;57.44;97242.84;6888568;28;20202;-87
2021/12/02 12:51:55;;;;;;;2.83;2.63;;;;;;;10.62;57.13;97241.31;6878151;28;20208;-81
2021/12/02 12:55:18;;;;;;;3.40;2.80;;;;;;;10.24;57.35;97226.88;6894195;28;20293;-81
2021/12/02 12:58:58;;;;;;;2.77;2.43;;;;;;;10.34;56.67;97235.94;6885471;28;20208;-81
2021/12/02 13:02:22;;;;;;;3.73;2.80;;;;;;;10.34;56.50;97235.94;6876246;28;20259;-81
2021/12/02 13:05:52;;;;;;;2.90;2.70;;;;;;;9.99;56.77;97232.53;6876123;28;20227;-81
2021/12/02 13:09:34;;;;;;;3.07;2.37;;;;;;;10.32;56.68;97237.25;6871856;28;20726;-81
2021/12/02 13:12:58;;;;;;;2.90;2.60;;;;;;;10.52;57.08;97246.50;6872821;28;20730;-81
2021/12/02 13:16:33;;;;;;;2.80;2.60;;;;;;;10.45;56.52;97247.75;6882014;28;20612;-82
2021/12/02 13:20:00;;;;;;;3.13;2.93;;;;;;;10.61;56.85;97242.38;6897861;28;20611;-82
2021/12/02 13:23:36;;;;;;;6.27;2.80;;;;;;;10.36;57.08;97251.88;6897400;28;20213;-81
2021/12/02 13:27:01;;;;;;;4.33;2.90;;;;;;;10.44;57.37;97238.00;6879485;28;20234;-81
2021/12/02 13:30:23;;;;;;;6.43;3.40;;;;;;;10.35;57.26;97237.59;6874634;28;20202;-81
2021/12/02 13:33:48;;;;;;;4.23;2.83;;;;;;;10.34;57.11;97254.00;6871250;28;20244;-81
2021/12/02 13:37:13;;;;;;;2.70;2.50;;;;;;;10.51;56.68;97236.00;6871015;28;20247;-81
2021/12/02 13:40:36;;;;;;;3.03;2.80;;;;;;;10.50;56.31;97245.94;6881678;28;20208;-81
2021/12/02 13:44:16;;;;;;;2.90;2.70;;;;;;;10.24;57.85;97257.31;6896300;28;20368;-82
2021/12/02 13:47:41;;;;;;;4.13;3.27;;;;;;;10.36;58.48;97249.19;6870294;28;20211;-80
2021/12/02 13:51:07;;;;;;;3.00;2.80;;;;;;;9.57;58.17;97251.84;6881624;28;20237;-81
2021/12/02 13:54:30;;;;;;;4.53;3.87;;;;;;;9.89;58.83;97255.75;6884652;28;20312;-81
2021/12/02 13:57:55;;;;;;;4.73;4.10;;;;;;;10.26;57.35;97239.03;6870321;28;20293;-82
2021/12/02 14:01:17;;;;;;;5.37;3.50;;;;;;;10.32;57.61;97258.78;6871246;28;20660;-81
2021/12/02 14:04:46;;;;;;;7.07;6.37;;;;;;;10.34;57.89;97246.72;6869714;28;20227;-81
2021/12/02 14:08:10;;;;;;;5.27;4.43;;;;;;;10.63;57.14;97271.78;6886970;28;20208;-81
2021/12/02 14:11:33;;;;;;;3.10;2.20;;;;;;;9.96;55.84;97259.94;6871413;28;20223;-81
2021/12/02 14:15:09;;;;;;;2.10;2.00;;;;;;;9.73;55.17;97275.31;6870545;28;20237;-80
2021/12/02 14:18:34;;;;;;;2.33;2.13;;;;;;;9.93;55.50;97281.94;6897103;28;20276;-81
2021/12/02 14:21:56;;;;;;;2.90;2.20;;;;;;;9.92;54.32;97287.59;6894307;28;20212;-81
2021/12/02 14:25:19;;;;;;;2.00;1.90;;;;;;;10.08;54.92;97301.16;6893206;28;20230;-80
2021/12/02 14:28:45;;;;;;;3.63;3.00;;;;;;;9.81;54.83;97300.00;6897955;28;20218;-81
2021/12/02 14:32:10;;;;;;;3.80;3.50;;;;;;;9.59;57.23;97304.38;6897697;28;20219;-80
2021/12/02 14:35:42;;;;;;;3.30;3.00;;;;;;;9.33;58.63;97314.78;6896081;28;20245;-80
2021/12/02 14:39:05;;;;;;;3.40;3.10;;;;;;;9.39;58.93;97327.31;6876933;28;20217;-80
2021/12/02 14:42:27;;;;;;;4.00;3.60;;;;;;;9.75;57.69;97316.28;6869444;28;20207;-80
2021/12/02 14:45:52;;;;;;;3.70;3.30;;;;;;;9.59;57.24;97330.44;6869490;28;20249;-81
2021/12/02 14:49:17;;;;;;;6.27;3.83;;;;;;;9.69;57.33;97331.50;6870361;28;20294;-83
2021/12/02 14:52:39;;;;;;;6.90;5.43;;;;;;;9.47;57.64;97319.72;6890309;28;20209;-81
2021/12/02 14:56:05;;;;;;;7.10;4.93;;;;;;;9.41;57.51;97338.63;6897320;28;20234;-82
2021/12/02 14:59:28;;;;;;;8.97;6.27;;;;;;;9.18;58.60;97314.41;6901491;28;20209;-83
2021/12/02 15:02:57;;;;;;;6.20;4.73;;;;;;;9.30;58.65;97340.28;6910902;28;20201;-81
2021/12/02 15:06:34;;;;;;;8.53;6.13;;;;;;;8.81;59.88;97357.81;6896251;28;20302;-81
2021/12/02 15:09:58;;;;;;;11.03;6.20;;;;;;;8.97;59.81;97371.44;6892829;28;20212;-79
2021/12/02 15:13:20;;;;;;;5.10;3.43;;;;;;;8.78;58.68;97369.81;6886428;28;20230;-81
2021/12/02 15:16:53;;;;;;;7.97;4.20;;;;;;;8.64;59.86;97378.28;6891083;28;20214;-80
2021/12/02 15:20:19;;;;;;;3.50;3.20;;;;;;;8.99;59.47;97388.13;6893422;28;20203;-82
2021/12/02 15:23:41;;;;;;;3.77;3.37;;;;;;;8.46;59.84;97389.06;6890961;28;20700;-81
2021/12/02 15:27:09;;;;;;;4.57;4.00;;;;;;;8.74;60.00;97398.22;6885564;28;20227;-79
2021/12/02 15:30:32;;;;;;;4.73;4.03;;;;;;;8.64;59.25;97381.81;6888017;28;20195;-80
2021/12/02 15:33:56;;;;;;;6.13;5.10;;;;;;;8.62;60.21;97407.25;6882284;28;20248;-84
2021/12/02 15:37:19;;;;;;;19.73;10.27;;;;;;;8.49;60.29;97413.59;6901568;28;20226;-80
2021/12/02 15:40:41;;;;;;;23.57;11.23;;;;;;;8.67;60.33;97418.94;6897760;28;20203;-80
2021/12/02 15:44:06;;;;;;;5.47;3.33;;;;;;;7.81;61.36;97443.44;6890258;28;20237;-80
2021/12/02 15:47:28;;;;;;;2.50;2.30;;;;;;;7.44;61.57;97452.44;6903080;28;20214;-79
2021/12/02 15:50:49;;;;;;;2.40;2.20;;;;;;;7.16;63.01;97454.69;6890431;28;20206;-82
2021/12/02 15:54:13;;;;;;;2.53;2.40;;;;;;;7.54;61.18;97455.47;6884740;28;20229;-82
2021/12/02 15:57:34;;;;;;;2.80;2.60;;;;;;;7.63;61.23;97464.88;6872163;28;20206;-80
2021/12/02 16:01:00;;;;;;;3.13;2.60;;;;;;;7.59;60.82;97475.22;6883580;28;20650;-80
2021/12/02 16:04:34;;;;;;;3.53;3.33;;;;;;;7.48;61.25;97483.16;6885303;28;20216;-81
2021/12/02 16:07:58;;;;;;;3.37;3.07;;;;;;;7.66;61.49;97492.06;6886181;28;20605;-82
2021/12/02 16:11:28;;;;;;;3.97;3.17;;;;;;;7.44;61.80;97495.34;6897944;28;20211;-80
2021/12/02 16:14:49;;;;;;;3.50;3.20;;;;;;;7.89;61.12;97527.16;6896719;28;20246;-80
2021/12/02 16:18:11;;;;;;;3.20;3.00;;;;;;;7.81;61.06;97521.25;6898873;28;20211;-80
2021/12/02 16:21:32;;;;;;;3.43;3.20;;;;;;;7.78;60.88;97519.03;6893478;28;20212;-80
2021/12/02 16:24:56;;;;;;;3.73;3.40;;;;;;;7.72;60.55;97534.13;6899364;28;20235;-82
2021/12/02 16:28:19;;;;;;;6.27;5.17;;;;;;;7.88;61.24;97547.00;6900855;28;20201;-83
2021/12/02 16:31:42;;;;;;;5.60;4.53;;;;;;;7.84;61.33;97529.69;6900330;28;20213;-82
2021/12/02 16:35:05;;;;;;;4.73;4.30;;;;;;;7.74;61.56;97550.84;6894836;28;20230;-80
2021/12/02 16:38:26;;;;;;;5.07;4.57;;;;;;;8.01;61.07;97560.31;6886632;28;20682;-82
2021/12/02 16:41:48;;;;;;;5.47;4.97;;;;;;;7.92;61.36;97567.00;6895558;28;20214;-80
2021/12/02 16:45:26;;;;;;;4.97;4.47;;;;;;;7.58;60.42;97540.63;6910890;23;20742;-91
2021/12/02 16:53:46;;;;;;;;;;;;;;;;;;;;;
2021/12/02 17:01:31;;;;;;;14.50;12.83;;;;;;;7.76;60.67;97494.25;6823041;29;20270;-89
2021/12/02 17:13:23;;;;;;;6.27;5.70;;;;;;;8.23;59.62;97623.34;6880646;28;20398;-89
2021/12/02 17:20:44;;;;;;;40.67;22.20;;;;;;;8.82;60.16;97642.44;6792899;29;20204;-90
2021/12/02 17:24:55;;;;;;;18.90;11.87;;;;;;;8.89;58.73;97645.88;6827343;28;20354;-88
2021/12/02 17:28:35;;;;;;;39.87;21.27;;;;;;;9.01;58.88;97652.16;6744959;29;20221;-88
2021/12/02 17:36:20;;;;;;;134.63;52.93;;;;;;;9.02;58.51;97661.03;6754585;29;20244;-88
2021/12/02 17:40:02;;;;;;;53.07;25.30;;;;;;;8.96;58.29;97648.50;6749132;29;20213;-88
2021/12/02 17:43:48;;;;;;;76.43;40.50;;;;;;;8.90;58.76;97676.25;6780121;29;20195;-92
2021/12/02 17:47:11;;;;;;;55.97;24.53;;;;;;;8.45;58.73;97634.50;6784934;29;20224;-87
2021/12/02 17:51:25;;;;;;;152.77;58.43;;;;;;;9.20;58.64;97699.50;6796422;29;20207;-87
2021/12/02 18:21:28;;;;;;;7.93;6.97;;;;;;;8.55;58.43;97748.47;6638618;29;20226;-87
2021/12/02 18:24:50;;;;;;;9.43;8.23;;;;;;;8.44;58.12;97761.78;6607935;29;20232;-87
2021/12/02 18:41:59;;;;;;;30.53;16.43;;;;;;;7.76;60.28;97790.19;6638682;29;20221;-88
2021/12/02 18:45:22;;;;;;;90.27;61.27;;;;;;;7.79;60.10;97772.84;6672502;29;20234;-90
2021/12/02 18:48:52;;;;;;;14.87;10.10;;;;;;;8.17;59.79;97809.41;6706012;29;20238;-89
2021/12/02 18:52:53;;;;;;;9.50;8.03;;;;;;;7.80;60.70;97807.53;6777407;28;20213;-87
2021/12/02 19:28:05;;;;;;;11.07;8.07;;;;;;;8.00;59.91;97853.03;6727463;29;20207;-87
2021/12/02 19:31:27;;;;;;;6.03;5.30;;;;;;;8.14;59.18;97844.72;6792589;29;20215;-87
2021/12/02 20:00:35;;;;;;;7.47;6.20;;;;;;;7.76;58.87;97908.25;6594696;30;20217;-89
2021/12/02 20:03:58;;;;;;;10.23;6.33;;;;;;;7.63;58.75;97856.47;6710980;29;20233;-87
2021/12/02 20:07:29;;;;;;;9.07;6.47;;;;;;;8.03;58.92;97914.38;6802295;28;20192;-86
2021/12/02 20:14:40;;;;;;;7.50;5.87;;;;;;;8.13;58.65;97893.28;6787979;29;20643;-87
2021/12/02 20:18:05;;;;;;;10.50;6.50;;;;;;;7.73;58.31;97870.28;6787211;29;20209;-89
2021/12/02 20:21:56;;;;;;;11.47;7.83;;;;;;;8.15;58.30;97944.91;6816192;29;20229;-88
2021/12/02 20:25:20;;;;;;;21.63;10.77;;;;;;;8.10;58.67;97953.59;6893782;28;20224;-86
2021/12/02 20:32:45;;;;;;;12.23;8.73;;;;;;;7.67;58.89;97962.31;6760715;28;20668;-88
2021/12/02 20:36:50;;;;;;;14.03;8.83;;;;;;;8.03;58.85;97965.38;6904703;28;20284;-87
2021/12/02 20:49:26;;;;;;;7.03;5.73;;;;;;;8.22;58.25;97981.47;6591861;30;20210;-86
2021/12/02 20:52:52;;;;;;;9.80;7.43;;;;;;;7.87;58.35;97990.78;6592596;30;20213;-87
2021/12/02 21:05:36;;;;;;;10.53;5.83;;;;;;;7.40;57.53;97937.34;6605634;29;20301;-86
2021/12/02 21:09:03;;;;;;;5.67;5.07;;;;;;;8.09;58.10;98015.53;6667131;29;20208;-86
2021/12/02 21:12:26;;;;;;;6.97;5.23;;;;;;;7.66;57.16;97961.47;6657509;29;20226;-86
2021/12/02 21:43:07;;;;;;;4.93;4.50;;;;;;;8.16;57.13;98056.63;6527542;30;20436;-85
2021/12/02 21:46:45;;;;;;;7.10;4.87;;;;;;;8.07;57.53;98065.94;6431420;30;20283;-86
2021/12/02 21:54:43;;;;;;;6.37;4.63;;;;;;;8.19;56.63;98078.50;6480539;30;20250;-86
2021/12/02 21:58:12;;;;;;;4.93;4.40;;;;;;;7.81;57.16;98085.53;6542602;30;20217;-86
